Time;durP1;ratioP1;P1;durP2;ratioP2;P2;SDS_P1;SDS_P2;PMS_P1;PMS_P2;Temp;Humidity;BMP_temperature;BMP_pressure;BME280_temperature;BME280_humidity;BME280_pressure;Samples;Min_cycle;Max_cycle;Signal;HPM_P1;HPM_P2
2022/06/23 00:01:17;;;;;;;4.68;1.63;;;;;;;14.01;75.75;100432.00;5039540;28;20049;-58
2022/06/23 00:03:50;;;;;;;3.22;1.70;;;;;;;14.01;75.77;100425.88;5038973;28;20128;-59
2022/06/23 00:06:40;;;;;;;2.75;1.63;;;;;;;14.07;75.39;100436.22;5039472;28;20057;-60
2022/06/23 00:09:37;;;;;;;20.00;3.30;;;;;;;14.04;75.63;100438.94;5039360;28;20053;-59
2022/06/23 00:12:30;;;;;;;12.40;2.63;;;;;;;14.10;76.15;100441.38;5039196;28;20650;-59
2022/06/23 00:15:20;;;;;;;8.93;2.30;;;;;;;14.15;75.99;100439.50;5039477;28;20057;-58
2022/06/23 00:18:00;;;;;;;4.97;2.00;;;;;;;14.04;75.51;100399.53;5038886;28;20356;-58
2022/06/23 00:20:35;;;;;;;2.97;2.00;;;;;;;14.31;75.88;100437.28;5038996;28;20526;-58
2022/06/23 00:23:13;;;;;;;5.87;2.03;;;;;;;14.35;75.69;100406.50;5039296;28;20280;-60
2022/06/23 00:25:47;;;;;;;7.47;2.30;;;;;;;14.30;74.80;100364.59;5038853;28;20349;-60
2022/06/23 00:28:25;;;;;;;4.03;2.57;;;;;;;14.88;75.06;100417.19;5039044;28;20545;-60
2022/06/23 00:31:00;;;;;;;6.93;2.90;;;;;;;15.10;73.81;100420.88;5038450;28;20288;-60
2022/06/23 00:33:40;;;;;;;4.50;2.87;;;;;;;15.21;73.77;100417.03;5039269;28;20288;-60
2022/06/23 00:36:19;;;;;;;14.63;3.65;;;;;;;15.32;73.53;100420.13;5038955;28;20288;-60
2022/06/23 00:38:50;;;;;;;7.60;3.13;;;;;;;15.38;72.87;100414.69;5038745;28;20057;-60
2022/06/23 00:41:26;;;;;;;11.87;3.00;;;;;;;15.52;72.84;100406.28;5038816;28;20057;-61
2022/06/23 00:44:00;;;;;;;14.63;3.50;;;;;;;15.72;72.44;100413.53;5038675;28;20322;-59
2022/06/23 00:46:37;;;;;;;5.27;2.50;;;;;;;15.91;71.81;100409.34;5038870;28;20284;-59
2022/06/23 00:49:33;;;;;;;7.47;2.97;;;;;;;16.17;71.31;100404.88;5038937;28;20287;-59
2022/06/23 00:52:16;;;;;;;12.33;2.60;;;;;;;16.50;70.76;100404.50;5038693;28;20296;-60
2022/06/23 00:54:53;;;;;;;6.93;2.53;;;;;;;16.65;69.43;100401.31;5038721;28;20292;-60
2022/06/23 00:57:31;;;;;;;10.30;2.37;;;;;;;16.74;69.48;100400.91;5037836;28;20295;-59
2022/06/23 01:00:13;;;;;;;34.83;3.17;;;;;;;16.70;69.00;100401.97;5038658;28;20296;-60
2022/06/23 01:02:49;;;;;;;3.67;2.03;;;;;;;16.54;68.82;100387.66;5038433;28;20288;-59
2022/06/23 01:05:25;;;;;;;5.43;2.17;;;;;;;16.58;68.42;100410.38;5038380;28;20299;-59
2022/06/23 01:08:10;;;;;;;9.17;2.80;;;;;;;16.46;68.60;100405.56;5038189;28;20611;-60
2022/06/23 01:10:46;;;;;;;11.80;3.37;;;;;;;16.32;69.13;100414.00;5038024;28;20323;-59
2022/06/23 01:13:28;;;;;;;13.77;4.20;;;;;;;16.26;69.75;100415.09;5038322;28;20296;-59
2022/06/23 01:16:05;;;;;;;6.87;3.83;;;;;;;16.20;70.18;100414.44;5038096;28;20288;-59
2022/06/23 01:18:41;;;;;;;15.97;4.10;;;;;;;16.07;70.58;100408.78;5038427;28;20280;-59
2022/06/23 01:21:18;;;;;;;11.73;4.37;;;;;;;15.98;71.37;100407.34;5038075;28;20475;-60
2022/06/23 01:24:04;;;;;;;33.63;6.00;;;;;;;15.93;71.49;100412.78;5037899;28;20299;-59
2022/06/23 01:26:58;;;;;;;14.17;5.40;;;;;;;15.93;71.59;100412.78;5038184;28;20284;-60
2022/06/23 01:29:36;;;;;;;12.80;5.37;;;;;;;16.00;71.71;100407.28;5037972;28;20299;-60
2022/06/23 01:32:15;;;;;;;14.23;5.03;;;;;;;15.93;72.15;100365.34;5037910;28;20292;-60
2022/06/23 01:34:52;;;;;;;15.57;4.40;;;;;;;16.31;71.96;100405.22;5037850;28;20312;-60
2022/06/23 01:37:28;;;;;;;10.83;4.13;;;;;;;16.48;71.77;100403.75;5037693;28;20339;-59
2022/06/23 01:40:11;;;;;;;14.67;4.97;;;;;;;16.67;71.05;100398.59;5037674;28;20294;-59
2022/06/23 01:42:47;;;;;;;12.67;4.40;;;;;;;16.87;70.82;100395.19;5037669;28;20281;-59
2022/06/23 01:45:25;;;;;;;15.67;5.00;;;;;;;16.85;69.25;100379.44;5037493;28;20268;-59
2022/06/23 01:48:00;;;;;;;11.73;4.77;;;;;;;17.01;69.54;100382.31;5036691;28;20358;-58
2022/06/23 01:50:38;;;;;;;15.63;5.03;;;;;;;17.15;68.67;100385.22;5029200;28;20303;-58
2022/06/23 01:53:24;;;;;;;12.03;4.90;;;;;;;17.15;68.56;100389.66;5017913;28;20595;-59
2022/06/23 01:56:11;;;;;;;13.47;4.07;;;;;;;17.17;69.24;100383.41;5023676;28;20355;-59
2022/06/23 01:58:52;;;;;;;28.73;5.83;;;;;;;17.17;69.06;100377.22;5033739;28;20541;-60
2022/06/23 02:01:31;;;;;;;9.73;4.47;;;;;;;17.23;69.52;100371.72;5037172;28;20596;-59
2022/06/23 02:04:10;;;;;;;14.10;3.85;;;;;;;17.23;69.07;100372.56;5037126;28;20477;-60
2022/06/23 02:06:49;;;;;;;10.15;4.60;;;;;;;17.30;68.79;100372.28;5037220;28;20057;-60
2022/06/23 02:09:27;;;;;;;12.13;4.80;;;;;;;17.28;68.80;100360.97;5025172;28;20089;-60
2022/06/23 02:11:57;;;;;;;10.50;4.10;;;;;;;17.54;68.39;100365.94;5037100;28;20053;-59
2022/06/23 02:14:51;;;;;;;35.87;5.80;;;;;;;17.69;68.30;100370.56;5036945;28;20284;-59
2022/06/23 02:17:34;;;;;;;9.43;4.03;;;;;;;17.80;67.87;100366.66;5034710;28;20479;-59
2022/06/23 02:20:22;;;;;;;15.50;4.20;;;;;;;17.62;67.12;100337.44;5033256;28;20303;-59
2022/06/23 02:23:06;;;;;;;8.68;3.83;;;;;;;17.68;67.25;100363.56;5033597;28;20385;-60
2022/06/23 02:25:43;;;;;;;10.37;4.00;;;;;;;17.71;67.62;100348.50;5037154;28;20059;-60
2022/06/23 02:28:20;;;;;;;6.20;3.37;;;;;;;17.55;67.88;100349.19;5036816;28;20315;-60
2022/06/23 02:30:55;;;;;;;7.13;3.73;;;;;;;17.37;68.08;100336.78;5036846;28;20600;-60
2022/06/23 02:33:36;;;;;;;9.03;4.03;;;;;;;17.33;68.69;100346.63;5036603;28;20291;-60
2022/06/23 02:36:18;;;;;;;11.57;4.23;;;;;;;17.14;68.76;100346.53;5036060;28;20304;-60
2022/06/23 02:38:52;;;;;;;8.83;3.97;;;;;;;16.92;69.78;100345.72;5036300;28;20519;-60
2022/06/23 02:41:29;;;;;;;8.80;4.00;;;;;;;16.73;70.48;100341.16;5036885;28;20287;-60
2022/06/23 02:44:14;;;;;;;11.40;4.13;;;;;;;16.61;71.27;100341.66;5034616;28;20356;-59
2022/06/23 02:47:11;;;;;;;11.83;3.90;;;;;;;16.52;71.55;100342.00;5025908;28;20285;-60
2022/06/23 02:50:15;;;;;;;13.83;4.40;;;;;;;16.39;72.04;100337.22;5036784;28;20630;-60
2022/06/23 02:53:17;;;;;;;10.53;4.63;;;;;;;16.30;72.93;100331.44;5036286;28;20291;-60
2022/06/23 02:56:18;;;;;;;16.70;5.07;;;;;;;16.24;73.14;100322.00;5036415;28;20288;-60
2022/06/23 02:58:53;;;;;;;7.27;4.00;;;;;;;16.20;73.58;100325.69;5034245;28;20350;-60
2022/06/23 03:01:32;;;;;;;8.30;3.50;;;;;;;16.21;73.88;100327.41;5035051;28;20742;-60
2022/06/23 03:04:07;;;;;;;47.90;5.95;;;;;;;16.15;73.85;100311.84;5036396;28;20284;-60
2022/06/23 03:06:47;;;;;;;12.10;3.73;;;;;;;16.28;73.98;100326.25;5036545;28;20103;-61
2022/06/23 03:09:24;;;;;;;6.40;2.80;;;;;;;16.35;74.25;100325.09;5036174;28;20314;-60
2022/06/23 03:12:01;;;;;;;10.10;3.93;;;;;;;16.41;73.89;100323.13;5036291;28;20284;-60
2022/06/23 03:14:38;;;;;;;8.23;3.00;;;;;;;16.38;73.57;100327.59;5036211;28;20330;-61
2022/06/23 03:17:19;;;;;;;6.83;2.90;;;;;;;16.37;73.56;100323.25;5036477;28;20343;-60
2022/06/23 03:19:59;;;;;;;5.53;3.07;;;;;;;16.17;73.83;100288.88;5035907;28;20277;-60
2022/06/23 03:22:33;;;;;;;7.83;3.10;;;;;;;16.42;74.29;100319.56;5039419;28;20336;-60
2022/06/23 03:25:12;;;;;;;5.23;3.10;;;;;;;16.33;74.54;100305.84;5040062;28;20296;-61
2022/06/23 03:27:50;;;;;;;7.83;3.07;;;;;;;16.02;74.19;100263.97;5040216;28;20287;-61
2022/06/23 03:30:25;;;;;;;7.73;3.33;;;;;;;16.37;74.62;100304.81;5039954;28;20308;-60
2022/06/23 03:33:03;;;;;;;8.00;3.33;;;;;;;16.39;74.96;100300.31;5039958;28;20778;-61
2022/06/23 03:35:39;;;;;;;10.73;3.80;;;;;;;16.44;74.75;100302.75;5039848;28;20471;-60
2022/06/23 03:38:18;;;;;;;11.57;4.97;;;;;;;16.45;73.97;100283.41;5039305;28;20335;-61
2022/06/23 03:43:50;;;;;;;11.70;5.10;;;;;;;16.57;74.52;100285.53;5040168;28;20112;-61
2022/06/23 03:46:27;;;;;;;16.90;6.00;;;;;;;16.66;74.77;100286.06;5039716;28;20586;-60
2022/06/23 03:49:03;;;;;;;22.50;6.00;;;;;;;16.65;75.16;100272.03;5039689;28;20061;-61
2022/06/23 03:51:37;;;;;;;17.20;6.07;;;;;;;16.68;74.39;100269.25;5039805;28;20350;-60
2022/06/23 03:54:16;;;;;;;14.73;5.70;;;;;;;16.84;74.76;100281.84;5039627;28;20287;-61
2022/06/23 03:56:51;;;;;;;16.33;5.43;;;;;;;16.74;74.50;100274.28;5040050;28;20315;-61
2022/06/23 03:59:26;;;;;;;16.87;4.90;;;;;;;16.69;74.72;100270.97;5039908;28;20280;-61
2022/06/23 04:02:01;;;;;;;14.37;4.80;;;;;;;16.58;74.99;100252.94;5039328;28;20311;-59
2022/06/23 04:04:48;;;;;;;8.37;4.90;;;;;;;16.63;75.71;100265.97;5039605;28;20310;-60
2022/06/23 04:07:44;;;;;;;123.80;21.87;;;;;;;16.50;75.80;100259.44;5039502;28;20300;-60
2022/06/23 04:10:22;;;;;;;43.03;5.93;;;;;;;16.42;76.09;100261.53;5039467;28;20634;-61
2022/06/23 04:13:17;;;;;;;9.50;4.23;;;;;;;16.39;76.06;100255.47;5039197;28;20356;-60
2022/06/23 04:15:52;;;;;;;8.57;3.40;;;;;;;16.43;76.46;100258.00;5039366;28;20294;-59
2022/06/23 04:18:27;;;;;;;12.60;4.40;;;;;;;16.45;76.48;100250.88;5039336;28;20275;-59
2022/06/23 04:21:03;;;;;;;13.93;3.30;;;;;;;16.46;76.11;100247.31;5039208;28;20618;-60
2022/06/23 04:23:36;;;;;;;10.53;3.97;;;;;;;16.48;76.03;100246.34;5039209;28;20603;-61
2022/06/23 04:26:14;;;;;;;6.87;3.30;;;;;;;16.51;75.88;100250.63;5039193;28;20288;-60
2022/06/23 04:28:49;;;;;;;11.70;3.10;;;;;;;16.58;76.21;100241.56;5039336;28;20276;-61
2022/06/23 04:31:27;;;;;;;22.80;3.17;;;;;;;16.67;76.11;100250.84;5039154;28;20053;-61
2022/06/23 04:33:59;;;;;;;12.63;3.08;;;;;;;16.76;75.98;100250.47;5038909;28;20299;-60
2022/06/23 04:36:32;;;;;;;10.17;3.07;;;;;;;16.68;75.42;100216.50;5039068;28;20071;-61
2022/06/23 04:39:07;;;;;;;13.67;3.03;;;;;;;16.54;75.34;100172.22;5039019;28;20288;-61
2022/06/23 04:41:45;;;;;;;10.07;3.10;;;;;;;16.81;74.90;100215.06;5038013;28;20284;-61
2022/06/23 04:44:19;;;;;;;6.40;2.97;;;;;;;17.02;74.92;100225.63;5019418;28;20626;-61
2022/06/23 04:46:54;;;;;;;16.67;3.63;;;;;;;17.10;75.09;100223.53;5020338;28;20307;-60
2022/06/23 04:49:29;;;;;;;11.67;2.90;;;;;;;17.21;74.74;100213.31;5034721;28;20630;-60
2022/06/23 04:52:02;;;;;;;17.53;2.93;;;;;;;17.29;74.57;100220.06;5038470;28;20308;-60
2022/06/23 04:54:37;;;;;;;9.90;4.13;;;;;;;17.41;74.17;100222.16;5032198;28;20304;-60
2022/06/23 04:57:16;;;;;;;20.33;3.77;;;;;;;17.48;73.56;100213.03;5034136;28;20672;-60
2022/06/23 04:59:51;;;;;;;49.85;4.97;;;;;;;17.39;72.84;100216.91;5028757;28;20351;-59
2022/06/23 05:02:30;;;;;;;11.47;2.77;;;;;;;17.32;72.95;100212.00;5032172;28;20061;-60
2022/06/23 05:05:06;;;;;;;67.67;15.07;;;;;;;17.23;73.38;100214.13;5029589;28;20304;-60
2022/06/23 05:07:44;;;;;;;8.60;3.17;;;;;;;17.20;73.48;100214.28;5029575;28;20300;-60
2022/06/23 05:10:21;;;;;;;9.83;2.90;;;;;;;17.04;73.36;100202.66;5018461;28;20316;-60
2022/06/23 05:12:59;;;;;;;14.57;3.67;;;;;;;17.00;73.63;100203.75;5020514;28;20285;-59
2022/06/23 05:15:33;;;;;;;19.93;5.97;;;;;;;16.95;73.86;100213.63;5025727;28;20309;-60
2022/06/23 05:18:07;;;;;;;7.73;3.50;;;;;;;16.93;74.60;100211.06;5035456;28;20358;-60
2022/06/23 05:20:49;;;;;;;10.43;3.57;;;;;;;16.90;74.58;100210.31;5035882;28;20322;-60
2022/06/23 05:23:24;;;;;;;6.00;3.00;;;;;;;16.88;74.80;100199.84;5036488;28;20561;-60
2022/06/23 05:25:58;;;;;;;30.63;9.23;;;;;;;16.97;74.92;100198.56;5037166;28;20308;-60
2022/06/23 05:28:33;;;;;;;9.53;3.10;;;;;;;17.10;75.02;100197.13;5037512;28;20499;-60
2022/06/23 05:31:08;;;;;;;6.30;2.63;;;;;;;17.18;74.76;100205.56;5031659;28;20327;-60
2022/06/23 05:33:47;;;;;;;21.97;2.57;;;;;;;17.19;73.69;100201.97;5017959;28;20351;-60
2022/06/23 05:36:22;;;;;;;4.70;2.08;;;;;;;17.24;73.00;100194.69;5018327;28;20332;-60
2022/06/23 05:39:03;;;;;;;6.90;2.00;;;;;;;17.06;72.36;100169.13;5017879;28;20108;-60
2022/06/23 05:41:37;;;;;;;10.47;1.60;;;;;;;17.22;72.16;100204.50;5031444;28;20304;-60
2022/06/23 05:44:16;;;;;;;10.27;2.23;;;;;;;17.22;72.33;100207.13;5036963;28;20272;-59
2022/06/23 05:46:49;;;;;;;5.38;1.75;;;;;;;17.21;72.25;100208.03;5037283;28;20292;-60
2022/06/23 05:49:25;;;;;;;4.80;1.83;;;;;;;17.18;72.13;100205.56;5037685;28;20057;-60
2022/06/23 05:52:00;;;;;;;9.23;2.23;;;;;;;17.17;72.17;100208.25;5037493;28;20303;-60
2022/06/23 05:54:35;;;;;;;6.57;2.40;;;;;;;17.00;72.07;100174.69;5037091;28;20296;-60
2022/06/23 05:57:15;;;;;;;15.93;2.33;;;;;;;17.20;72.19;100201.06;5037486;28;20284;-60
2022/06/23 06:00:03;;;;;;;8.13;2.63;;;;;;;17.24;72.18;100199.97;5037488;28;20372;-59
2022/06/23 06:02:43;;;;;;;5.93;2.35;;;;;;;17.22;71.85;100186.00;5029988;28;20289;-59
2022/06/23 06:05:34;;;;;;;9.80;2.50;;;;;;;17.15;72.25;100179.28;5036408;28;20084;-59
2022/06/23 06:08:08;;;;;;;10.90;2.77;;;;;;;17.20;72.46;100190.50;5036878;28;20657;-60
2022/06/23 06:10:40;;;;;;;10.60;3.17;;;;;;;17.19;72.15;100180.84;5037123;28;20308;-59
2022/06/23 06:13:18;;;;;;;9.10;2.70;;;;;;;17.18;72.47;100184.44;5037138;28;20287;-60
2022/06/23 06:15:54;;;;;;;15.13;3.40;;;;;;;17.08;72.70;100169.94;5037073;28;20284;-60
2022/06/23 06:18:29;;;;;;;6.70;2.20;;;;;;;17.05;72.63;100178.00;5037573;28;20284;-60
2022/06/23 06:21:03;;;;;;;7.23;3.13;;;;;;;16.91;72.93;100180.38;5035868;28;20513;-60
2022/06/23 06:23:43;;;;;;;11.33;3.03;;;;;;;16.79;72.89;100187.88;5037154;28;20641;-60
2022/06/23 06:26:17;;;;;;;16.77;2.80;;;;;;;16.64;73.48;100167.41;5034109;28;20354;-59
2022/06/23 06:28:48;;;;;;;6.67;2.80;;;;;;;16.73;73.48;100179.38;5036689;28;20294;-59
2022/06/23 06:31:30;;;;;;;10.97;2.70;;;;;;;16.64;73.35;100172.69;5036012;28;20324;-60
2022/06/23 06:34:10;;;;;;;7.30;3.70;;;;;;;16.67;73.19;100183.09;5035345;28;20366;-59
2022/06/23 06:36:43;;;;;;;9.70;2.80;;;;;;;16.64;73.09;100191.16;5035429;28;20283;-60
2022/06/23 06:39:19;;;;;;;6.10;2.63;;;;;;;16.58;73.13;100183.53;5037018;28;20591;-59
2022/06/23 06:41:54;;;;;;;17.33;2.90;;;;;;;16.55;73.53;100188.94;5036679;28;20347;-60
2022/06/23 06:44:25;;;;;;;15.80;2.77;;;;;;;16.52;73.71;100178.47;5037089;28;20582;-59
2022/06/23 06:46:58;;;;;;;12.40;4.73;;;;;;;16.56;74.33;100186.22;5036777;28;20295;-60
2022/06/23 06:49:32;;;;;;;8.93;3.00;;;;;;;16.52;74.45;100183.75;5036752;28;20288;-60
2022/06/23 06:52:03;;;;;;;6.20;3.80;;;;;;;16.49;74.97;100184.75;5036812;28;20315;-59
2022/06/23 06:54:41;;;;;;;8.83;3.40;;;;;;;16.46;74.46;100199.84;5036614;28;20541;-60
2022/06/23 06:57:15;;;;;;;10.20;3.90;;;;;;;16.21;74.63;100166.59;5039553;28;20614;-59
2022/06/23 06:59:56;;;;;;;8.33;3.50;;;;;;;16.20;74.15;100187.72;5040742;28;20330;-59
2022/06/23 07:02:34;;;;;;;12.17;4.47;;;;;;;16.18;74.64;100190.44;5040998;28;20304;-59
2022/06/23 07:05:16;;;;;;;9.57;4.87;;;;;;;16.12;74.49;100190.69;5040727;28;20292;-59
2022/06/23 07:07:53;;;;;;;12.67;5.23;;;;;;;15.88;74.37;100167.03;5040686;28;20295;-60
2022/06/23 07:10:29;;;;;;;11.50;3.93;;;;;;;15.83;74.55;100179.53;5038542;28;20626;-60
2022/06/23 07:13:04;;;;;;;11.00;5.23;;;;;;;15.78;74.87;100192.03;5037128;28;20300;-60
2022/06/23 07:15:40;;;;;;;12.83;5.17;;;;;;;15.66;74.98;100197.75;5040621;28;20447;-59
2022/06/23 07:18:32;;;;;;;10.47;6.57;;;;;;;15.41;75.56;100182.88;5040441;28;20526;-60
2022/06/23 07:21:08;;;;;;;11.17;5.47;;;;;;;15.13;76.14;100153.25;5039787;28;20335;-60
2022/06/23 07:23:45;;;;;;;29.50;6.90;;;;;;;15.29;76.76;100188.59;5040304;28;20276;-59
2022/06/23 07:26:42;;;;;;;15.00;5.47;;;;;;;15.22;77.30;100176.56;5039888;28;20359;-59
2022/06/23 07:29:26;;;;;;;25.87;6.53;;;;;;;15.13;77.49;100183.03;5040040;28;20582;-59
2022/06/23 07:32:06;;;;;;;38.53;7.50;;;;;;;15.08;77.78;100180.56;5040461;28;20358;-59
2022/06/23 07:34:44;;;;;;;11.53;6.67;;;;;;;15.04;77.88;100168.44;5039972;28;20344;-59
2022/06/23 07:37:22;;;;;;;10.70;6.00;;;;;;;15.02;78.23;100165.00;5040232;28;20288;-60
2022/06/23 07:40:00;;;;;;;15.02;7.47;;;;;;;14.99;78.18;100165.09;5039871;28;20363;-60
2022/06/23 07:42:48;;;;;;;37.40;8.37;;;;;;;14.97;78.57;100159.03;5040043;28;20222;-60
2022/06/23 07:45:25;;;;;;;18.70;7.23;;;;;;;14.43;78.44;100081.19;5040066;28;20295;-60
2022/06/23 07:47:56;;;;;;;10.53;6.67;;;;;;;14.88;78.46;100154.97;5039862;28;20306;-60
2022/06/23 07:50:30;;;;;;;18.23;7.83;;;;;;;14.77;78.87;100146.59;5040218;28;20288;-60
2022/06/23 07:53:01;;;;;;;19.70;8.20;;;;;;;14.76;79.33;100151.94;5039920;28;20654;-60
2022/06/23 07:55:35;;;;;;;20.57;8.53;;;;;;;14.73;79.66;100146.78;5039621;28;20284;-60
2022/06/23 07:58:19;;;;;;;15.03;8.00;;;;;;;14.73;79.87;100155.53;5039760;28;20372;-60
2022/06/23 08:00:53;;;;;;;19.93;10.67;;;;;;;14.73;80.09;100145.00;5039647;28;20338;-59
2022/06/23 08:03:31;;;;;;;21.40;8.40;;;;;;;14.69;80.36;100147.78;5038896;28;20358;-60
2022/06/23 08:06:07;;;;;;;20.97;9.83;;;;;;;14.61;80.53;100138.41;5039592;28;20288;-59
2022/06/23 08:08:40;;;;;;;25.87;11.97;;;;;;;14.60;80.78;100146.31;5039109;28;20479;-60
2022/06/23 08:14:27;;;;;;;20.57;9.50;;;;;;;14.57;81.13;100141.19;5039457;28;20291;-60
2022/06/23 08:16:56;;;;;;;16.37;10.27;;;;;;;14.48;81.35;100138.81;5039756;28;20280;-60
2022/06/23 08:19:33;;;;;;;17.30;9.93;;;;;;;14.32;81.59;100122.72;5039724;28;20286;-59
2022/06/23 08:22:11;;;;;;;22.93;10.23;;;;;;;14.14;81.86;100106.69;5039422;28;20334;-59
2022/06/23 08:24:45;;;;;;;23.17;9.87;;;;;;;14.36;82.31;100142.75;5039148;28;20287;-59
2022/06/23 08:27:39;;;;;;;17.33;8.60;;;;;;;14.27;82.27;100135.16;5039073;28;20272;-61
2022/06/23 08:30:14;;;;;;;18.13;9.50;;;;;;;14.17;82.51;100132.84;5038955;28;20359;-60
2022/06/23 08:32:48;;;;;;;16.07;9.60;;;;;;;14.19;82.96;100141.53;5038158;28;20354;-60
2022/06/23 08:35:25;;;;;;;20.20;11.47;;;;;;;14.17;82.97;100132.84;5038733;28;20330;-60
2022/06/23 08:38:00;;;;;;;24.43;15.80;;;;;;;14.05;83.08;100128.00;5038931;28;20296;-60
2022/06/23 08:40:43;;;;;;;28.60;12.80;;;;;;;13.95;83.54;100129.19;5038746;28;20797;-59
2022/06/23 08:43:27;;;;;;;17.63;10.70;;;;;;;13.96;83.72;100139.66;5037993;28;20300;-59
2022/06/23 08:46:07;;;;;;;25.37;13.00;;;;;;;13.88;83.98;100127.69;5036399;28;20288;-59
2022/06/23 08:48:49;;;;;;;18.17;11.23;;;;;;;13.91;84.35;100124.97;5036151;28;20359;-59
2022/06/23 08:51:25;;;;;;;18.23;10.63;;;;;;;13.95;84.42;100126.56;5038376;28;20346;-60
2022/06/23 08:54:13;;;;;;;20.85;10.55;;;;;;;13.91;84.09;100114.47;5038537;28;20288;-59
2022/06/23 08:56:51;;;;;;;18.07;10.43;;;;;;;13.88;84.11;100114.53;5037585;28;20049;-59
2022/06/23 08:59:30;;;;;;;18.13;10.40;;;;;;;13.86;84.02;100105.88;5036927;28;20733;-59
2022/06/23 09:02:10;;;;;;;21.88;10.68;;;;;;;13.75;83.84;100099.22;5038468;28;20753;-60
2022/06/23 09:04:50;;;;;;;34.03;12.47;;;;;;;13.75;83.86;100104.47;5037797;28;20111;-59
2022/06/23 09:07:27;;;;;;;;;;;;;;;13.73;83.71;100102.78;5037513;28;20838;-59
2022/06/23 09:10:10;;;;;;;23.53;11.37;;;;;;;13.68;83.84;100092.44;5020603;28;19932;-60
2022/06/23 09:12:47;;;;;;;27.77;14.40;;;;;;;13.70;83.60;100105.50;5043659;28;20618;-60
2022/06/23 09:15:36;;;;;;;33.23;14.57;;;;;;;13.66;83.90;100104.75;5044174;28;20399;-60
2022/06/23 09:18:30;;;;;;;31.48;14.68;;;;;;;13.62;83.99;100102.25;5041986;28;20353;-60
2022/06/23 09:21:20;;;;;;;31.15;13.63;;;;;;;13.60;83.88;100104.91;5042545;28;20059;-60
2022/06/23 09:24:22;;;;;;;31.33;15.20;;;;;;;13.57;84.00;100099.78;5043992;28;20086;-60
2022/06/23 09:27:00;;;;;;;22.15;13.20;;;;;;;13.52;84.28;100092.03;5031354;28;20077;-60
2022/06/23 09:29:49;;;;;;;30.67;13.55;;;;;;;13.58;84.24;100105.00;5044093;28;20091;-59
2022/06/23 09:32:34;;;;;;;25.90;12.35;;;;;;;13.17;84.45;100043.25;5042599;28;20061;-59
2022/06/23 09:35:26;;;;;;;26.63;13.47;;;;;;;13.59;84.34;100113.72;5043461;28;20147;-59
2022/06/23 09:38:21;;;;;;;23.07;12.53;;;;;;;13.60;84.19;100115.41;5043612;28;20315;-60
2022/06/23 09:41:03;;;;;;;26.73;13.50;;;;;;;13.51;84.21;100107.84;5042661;28;20391;-60
2022/06/23 09:44:03;;;;;;;24.85;12.73;;;;;;;13.46;84.40;100112.38;5040039;28;20056;-60
2022/06/23 09:46:59;;;;;;;22.75;11.65;;;;;;;13.45;84.73;100115.91;5043890;28;20076;-60
2022/06/23 09:49:46;;;;;;;25.63;12.77;;;;;;;13.50;84.20;100114.00;5043581;28;20052;-60
2022/06/23 09:52:37;;;;;;;20.00;12.27;;;;;;;13.46;84.41;100109.75;5043506;28;20107;-60
2022/06/23 09:55:32;;;;;;;23.10;13.45;;;;;;;13.44;84.29;100104.56;5043560;28;20061;-59
2022/06/23 09:58:52;;;;;;;24.30;12.00;;;;;;;13.38;84.65;100100.34;5043464;28;20148;-60
2022/06/23 10:01:39;;;;;;;23.10;12.32;;;;;;;13.29;84.50;100103.25;5006600;28;20052;-60
2022/06/23 10:04:39;;;;;;;23.50;12.45;;;;;;;13.24;84.82;100102.50;5043175;28;20076;-60
2022/06/23 10:07:34;;;;;;;24.80;12.85;;;;;;;13.19;85.17;100104.41;5043254;28;20117;-60
2022/06/23 10:10:14;;;;;;;34.83;13.55;;;;;;;13.22;84.98;100098.19;5043317;28;20045;-60
2022/06/23 10:13:02;;;;;;;30.40;12.70;;;;;;;13.26;84.87;100095.44;5041370;28;20057;-60
2022/06/23 10:15:51;;;;;;;25.00;14.00;;;;;;;13.16;84.67;100094.84;5041640;28;20049;-60
2022/06/23 10:18:48;;;;;;;27.35;13.57;;;;;;;13.18;84.78;100092.19;5042606;28;20053;-60
2022/06/23 10:21:34;;;;;;;27.27;13.05;;;;;;;13.11;84.79;100095.91;5042336;28;20403;-60
2022/06/23 10:24:30;;;;;;;29.48;12.02;;;;;;;13.01;85.16;100099.69;5043232;28;20049;-60
2022/06/23 10:27:20;;;;;;;25.80;12.00;;;;;;;13.04;85.30;100099.59;5043171;28;20121;-60
2022/06/23 10:30:04;;;;;;;19.23;11.00;;;;;;;12.98;85.46;100089.28;5042757;28;20155;-60
2022/06/23 10:33:31;;;;;;;20.50;11.73;;;;;;;12.94;85.54;100084.13;5042702;28;20052;-61
2022/06/23 10:36:19;;;;;;;26.92;14.13;;;;;;;12.89;86.29;100100.91;5042770;28;20053;-60
2022/06/23 10:39:02;;;;;;;23.92;13.18;;;;;;;12.70;86.88;100074.34;5040988;28;20060;-60
2022/06/23 10:41:48;;;;;;;20.30;11.65;;;;;;;12.81;86.84;100098.50;5041483;28;20062;-60
2022/06/23 10:44:39;;;;;;;18.90;11.63;;;;;;;12.82;87.30;100094.97;5038409;28;20128;-60
2022/06/23 10:47:27;;;;;;;25.23;11.73;;;;;;;12.84;87.54;100093.16;5039431;28;20083;-60
2022/06/23 10:50:28;;;;;;;20.67;10.70;;;;;;;12.84;87.45;100098.41;5042176;28;20087;-61
2022/06/23 10:53:59;;;;;;;22.98;12.38;;;;;;;12.84;87.58;100098.41;5041177;28;20161;-61
2022/06/23 10:56:49;;;;;;;24.80;11.55;;;;;;;12.80;87.70;100109.88;5037940;28;20084;-61
2022/06/23 10:59:49;;;;;;;23.55;12.10;;;;;;;12.69;87.94;100104.94;5042502;28;20081;-61
2022/06/23 11:02:45;;;;;;;28.13;12.10;;;;;;;12.67;88.04;100111.13;5042124;28;20181;-61
2022/06/23 11:06:03;;;;;;;19.42;10.95;;;;;;;12.61;88.41;100113.94;5040356;28;20368;-61
2022/06/23 11:08:54;;;;;;;23.17;13.70;;;;;;;12.58;88.92;100116.59;4964181;28;20062;-61
2022/06/23 11:11:48;;;;;;;17.67;10.90;;;;;;;12.50;89.09;100117.69;5041940;28;20080;-60
2022/06/23 11:14:31;;;;;;;25.25;12.07;;;;;;;12.29;89.36;100089.44;5040797;28;20063;-60
2022/06/23 11:17:11;;;;;;;19.98;10.88;;;;;;;12.46;89.56;100118.66;5042635;28;20067;-60
2022/06/23 11:19:47;;;;;;;;;;;;;;;12.46;89.68;100123.91;5042668;28;20061;-59
2022/06/23 11:22:41;;;;;;;21.63;10.07;;;;;;;12.39;89.98;100111.88;5042139;28;19924;-61
2022/06/23 11:25:26;;;;;;;17.73;10.38;;;;;;;12.42;90.01;100117.03;5033976;28;20091;-60
2022/06/23 11:28:05;;;;;;;20.27;10.25;;;;;;;12.44;90.27;100117.84;5042160;28;20053;-61
2022/06/23 11:30:47;;;;;;;20.85;10.55;;;;;;;12.49;90.37;100118.59;5042675;28;20595;-62
2022/06/23 11:33:45;;;;;;;22.58;11.82;;;;;;;12.48;90.03;100118.63;5042336;28;20332;-62
2022/06/23 11:36:27;;;;;;;20.13;10.25;;;;;;;12.42;90.04;100109.16;5041675;28;20049;-61
2022/06/23 11:39:27;;;;;;;17.90;10.35;;;;;;;12.19;90.33;100077.47;5041601;28;20053;-60
2022/06/23 11:42:17;;;;;;;16.45;9.93;;;;;;;12.36;90.68;100101.47;5042152;28;20847;-61
2022/06/23 11:45:01;;;;;;;19.50;9.52;;;;;;;12.34;90.74;100098.03;5044708;28;20131;-61
2022/06/23 11:47:45;;;;;;;17.20;9.48;;;;;;;12.33;90.82;100093.69;5045784;28;20091;-61
2022/06/23 11:50:24;;;;;;;18.27;9.32;;;;;;;12.27;90.90;100089.47;5043590;28;20061;-61
2022/06/23 11:53:09;;;;;;;15.68;8.82;;;;;;;12.27;91.15;100091.22;5044325;28;20069;-62
2022/06/23 11:55:46;;;;;;;16.58;8.48;;;;;;;12.30;91.04;100091.13;5044254;28;20056;-60
2022/06/23 11:58:43;;;;;;;13.88;8.38;;;;;;;12.27;91.08;100075.50;5042914;28;20096;-60
2022/06/23 12:01:18;;;;;;;14.00;7.60;;;;;;;12.19;91.02;100061.75;5043802;28;20065;-59
2022/06/23 12:04:04;;;;;;;13.77;8.30;;;;;;;12.31;91.22;100082.41;5042632;28;20065;-60
2022/06/23 12:06:49;;;;;;;15.23;7.82;;;;;;;12.36;91.19;100083.13;5045485;28;20125;-60
2022/06/23 12:09:28;;;;;;;12.93;7.63;;;;;;;12.35;91.12;100070.91;5037110;28;20053;-60
2022/06/23 12:12:01;;;;;;;13.87;7.57;;;;;;;12.36;91.09;100070.03;5020808;28;20233;-60
2022/06/23 12:14:34;;;;;;;13.40;7.28;;;;;;;12.40;91.14;100066.41;5026128;28;20072;-60
2022/06/23 12:17:11;;;;;;;13.45;7.28;;;;;;;12.41;90.98;100062.91;5027957;28;20091;-61
2022/06/23 12:19:51;;;;;;;14.63;8.90;;;;;;;12.43;91.00;100063.72;5030394;28;20073;-60
2022/06/23 12:22:24;;;;;;;16.05;8.88;;;;;;;11.98;90.54;99980.25;5029924;28;20087;-60
2022/06/23 12:25:08;;;;;;;12.88;7.68;;;;;;;12.46;90.58;100063.63;5027977;28;20046;-60
2022/06/23 12:27:44;;;;;;;15.52;8.60;;;;;;;12.49;90.16;100065.31;5033354;28;20092;-60